PWSweather.com
Personal Weather Stations
Station Observations
KJ4AJP
Beautiful Downtown Gardner, Martin, TN 38237

Beautiful Downtown GardnerMartin, TN 38237

Lat: 36.358, Lon: -88.8994

Elevation: 384.3

Station Type: TP1080WC

http://weather.mambm.com/

High Low Average
Temperature 73.2°F22.9°C 62.8°F17.1°C 68.4°F20.2°C
Dew Point 69.8°F21.0°C 62.5°F16.9°C 66.6°F19.2°C
Winds 15.9 mph 25.6 kmh 1.6 mph 2.6 kmh 7.0 mph SSW11.3 kmh SSW
Wind Gusts 31.1 mph50.1 kmh 8.3 mph13.4 kmh 17.0 mph27.4 kmh
Humidity 99% 85% 94%
Pressure 30.02 in1016.6 mb 29.84 in1010.5 mb -
Precipitation 0.01 in0.3 mm - -
Hour Temp Dew Point Humidity Winds Wind Gusts Pressure Precip Precip Rate Daily Precip Total
12:00 AM 62.8°F17.1°C 62.5°F16.9°C 99% 1.6 mph SSW2.6 kmh SSW 9.8 mph15.8 kmh 30.01 in1016.3 mb 0.01 in0.3 mm 0.00 in0.0 mm 0.01 in0.3 mm
12:15 AM 63.0°F17.2°C 62.7°F17.1°C 99% 4.5 mph S7.2 kmh S 9.8 mph15.8 kmh 30.02 in1016.6 mb 0.00 in0.0 mm 0.00 in0.0 mm 0.01 in0.3 mm
12:30 AM 63.1°F17.3°C 62.9°F17.2°C 99% 3.1 mph SSW5.0 kmh SSW 9.8 mph15.8 kmh 30.02 in1016.6 mb 0.00 in0.0 mm 0.00 in0.0 mm 0.01 in0.3 mm
12:45 AM 63.3°F17.4°C 63.1°F17.3°C 99% 3.8 mph SSW6.1 kmh SSW 12.1 mph19.5 kmh 30.00 in1015.9 mb 0.00 in0.0 mm 0.00 in0.0 mm 0.01 in0.3 mm
01:00 AM 63.5°F17.5°C 63.2°F17.3°C 99% 6.0 mph SSW9.7 kmh SSW 13.0 mph20.9 kmh 30.00 in1015.9 mb 0.00 in0.0 mm 0.00 in0.0 mm 0.01 in0.3 mm
01:15 AM 63.9°F17.7°C 63.6°F17.6°C 99% 5.4 mph SW8.7 kmh SW 14.5 mph23.3 kmh 30.00 in1015.9 mb 0.00 in0.0 mm 0.00 in0.0 mm 0.01 in0.3 mm
01:30 AM 64.0°F17.8°C 63.8°F17.7°C 99% 6.0 mph SW9.7 kmh SW 14.5 mph23.3 kmh 29.99 in1015.6 mb 0.00 in0.0 mm 0.00 in0.0 mm 0.01 in0.3 mm
01:45 AM 64.4°F18.0°C 64.1°F17.8°C 99% 6.9 mph SSW11.1 kmh SSW 13.6 mph21.9 kmh 29.99 in1015.6 mb 0.00 in0.0 mm 0.00 in0.0 mm 0.01 in0.3 mm
02:00 AM 64.8°F18.2°C 64.5°F18.1°C 99% 3.8 mph SSW6.1 kmh SSW 11.4 mph18.3 kmh 29.99 in1015.6 mb 0.00 in0.0 mm 0.00 in0.0 mm 0.01 in0.3 mm
02:15 AM 64.9°F18.3°C 64.7°F18.2°C 99% 4.5 mph SSW7.2 kmh SSW 12.1 mph19.5 kmh 29.99 in1015.6 mb 0.00 in0.0 mm 0.00 in0.0 mm 0.01 in0.3 mm
02:30 AM 64.9°F18.3°C 64.7°F18.2°C 99% 6.9 mph SW11.1 kmh SW 9.8 mph15.8 kmh 29.99 in1015.6 mb 0.00 in0.0 mm 0.00 in0.0 mm 0.01 in0.3 mm
02:45 AM 65.1°F18.4°C 64.9°F18.3°C 99% 3.8 mph SSW6.1 kmh SSW 13.6 mph21.9 kmh 29.98 in1015.2 mb 0.00 in0.0 mm 0.00 in0.0 mm 0.01 in0.3 mm
03:00 AM 65.1°F18.4°C 64.9°F18.3°C 99% 3.8 mph SSW6.1 kmh SSW 10.7 mph17.2 kmh 29.99 in1015.6 mb 0.00 in0.0 mm 0.00 in0.0 mm 0.01 in0.3 mm
03:15 AM 65.1°F18.4°C 64.9°F18.3°C 99% 3.8 mph S6.1 kmh S 9.8 mph15.8 kmh 29.98 in1015.2 mb 0.00 in0.0 mm 0.00 in0.0 mm 0.01 in0.3 mm
03:30 AM 65.3°F18.5°C 65.0°F18.3°C 99% 5.4 mph S8.7 kmh S 14.5 mph23.3 kmh 29.98 in1015.2 mb 0.00 in0.0 mm 0.00 in0.0 mm 0.01 in0.3 mm
03:45 AM 65.5°F18.6°C 65.2°F18.4°C 99% 3.1 mph SSW5.0 kmh SSW 11.4 mph18.3 kmh 29.99 in1015.6 mb 0.00 in0.0 mm 0.00 in0.0 mm 0.01 in0.3 mm
04:00 AM 65.7°F18.7°C 65.4°F18.6°C 99% 6.9 mph S11.1 kmh S 15.9 mph25.6 kmh 29.98 in1015.2 mb 0.00 in0.0 mm 0.00 in0.0 mm 0.01 in0.3 mm
04:15 AM 65.8°F18.8°C 65.6°F18.7°C 99% 3.1 mph SSW5.0 kmh SSW 12.1 mph19.5 kmh 29.98 in1015.2 mb 0.00 in0.0 mm 0.00 in0.0 mm 0.01 in0.3 mm
04:30 AM 65.8°F18.8°C 65.6°F18.7°C 99% 3.8 mph S6.1 kmh S 15.9 mph25.6 kmh 29.98 in1015.2 mb 0.00 in0.0 mm 0.00 in0.0 mm 0.01 in0.3 mm
04:45 AM 66.0°F18.9°C 65.8°F18.8°C 99% 6.9 mph S11.1 kmh S 16.8 mph27.0 kmh 29.98 in1015.2 mb 0.00 in0.0 mm 0.00 in0.0 mm 0.01 in0.3 mm
05:00 AM 66.0°F18.9°C 65.8°F18.8°C 99% 4.5 mph S7.2 kmh S 14.5 mph23.3 kmh 29.98 in1015.2 mb 0.00 in0.0 mm 0.00 in0.0 mm 0.01 in0.3 mm
05:15 AM 66.0°F18.9°C 65.8°F18.8°C 99% 3.1 mph S5.0 kmh S 13.0 mph20.9 kmh 29.97 in1014.9 mb 0.01 in0.3 mm 0.04 in1.0 mm 0.01 in0.3 mm
05:30 AM 66.0°F18.9°C 65.8°F18.8°C 99% 5.4 mph S8.7 kmh S 13.6 mph21.9 kmh 29.97 in1014.9 mb 0.01 in0.3 mm 0.00 in0.0 mm 0.01 in0.3 mm
05:45 AM 66.2°F19.0°C 65.9°F18.8°C 99% 6.0 mph S9.7 kmh S 15.2 mph24.5 kmh 29.98 in1015.2 mb 0.01 in0.3 mm 0.00 in0.0 mm 0.01 in0.3 mm
06:00 AM 66.0°F18.9°C 65.8°F18.8°C 99% 4.5 mph S7.2 kmh S 13.0 mph20.9 kmh 29.98 in1015.2 mb 0.01 in0.3 mm 0.00 in0.0 mm 0.01 in0.3 mm
06:15 AM 66.0°F18.9°C 65.8°F18.8°C 99% 1.6 mph S2.6 kmh S 10.7 mph17.2 kmh 29.98 in1015.2 mb 0.00 in0.0 mm 0.00 in0.0 mm 0.01 in0.3 mm
06:30 AM 65.8°F18.8°C 65.6°F18.7°C 99% 6.0 mph S9.7 kmh S 15.2 mph24.5 kmh 29.98 in1015.2 mb 0.00 in0.0 mm 0.00 in0.0 mm 0.01 in0.3 mm
06:45 AM 65.8°F18.8°C 65.6°F18.7°C 99% 6.0 mph S9.7 kmh S 16.8 mph27.0 kmh 29.97 in1014.9 mb 0.00 in0.0 mm 0.00 in0.0 mm 0.01 in0.3 mm
07:00 AM 65.7°F18.7°C 65.4°F18.6°C 99% 5.4 mph S8.7 kmh S 16.8 mph27.0 kmh 29.97 in1014.9 mb 0.00 in0.0 mm 0.00 in0.0 mm 0.01 in0.3 mm
07:15 AM 65.7°F18.7°C 65.4°F18.6°C 99% 7.6 mph SSW12.2 kmh SSW 15.9 mph25.6 kmh 29.96 in1014.6 mb 0.00 in0.0 mm 0.00 in0.0 mm 0.01 in0.3 mm
07:30 AM 65.7°F18.7°C 65.4°F18.6°C 99% 8.3 mph S13.4 kmh S 15.2 mph24.5 kmh 29.97 in1014.9 mb 0.00 in0.0 mm 0.00 in0.0 mm 0.01 in0.3 mm
07:45 AM 65.7°F18.7°C 65.4°F18.6°C 99% 4.5 mph S7.2 kmh S 13.0 mph20.9 kmh 29.98 in1015.2 mb 0.00 in0.0 mm 0.00 in0.0 mm 0.01 in0.3 mm
08:00 AM 65.8°F18.8°C 65.6°F18.7°C 99% 4.5 mph SSW7.2 kmh SSW 19.7 mph31.7 kmh 29.98 in1015.2 mb 0.00 in0.0 mm 0.00 in0.0 mm 0.01 in0.3 mm
08:15 AM 66.0°F18.9°C 65.8°F18.8°C 99% 8.3 mph S13.4 kmh S 18.3 mph29.5 kmh 29.98 in1015.2 mb 0.00 in0.0 mm 0.00 in0.0 mm 0.01 in0.3 mm
08:30 AM 66.4°F19.1°C 66.1°F18.9°C 99% 6.9 mph SSW11.1 kmh SSW 16.8 mph27.0 kmh 29.98 in1015.2 mb 0.00 in0.0 mm 0.00 in0.0 mm 0.01 in0.3 mm
08:45 AM 66.6°F19.2°C 66.3°F19.1°C 99% 8.3 mph SSW13.4 kmh SSW 19.0 mph30.6 kmh 29.97 in1014.9 mb 0.00 in0.0 mm 0.00 in0.0 mm 0.01 in0.3 mm
09:00 AM 66.6°F19.2°C 66.3°F19.1°C 99% 13.0 mph SW20.9 kmh SW 22.8 mph36.7 kmh 29.95 in1014.2 mb 0.00 in0.0 mm 0.00 in0.0 mm 0.01 in0.3 mm
09:15 AM 66.7°F19.3°C 66.5°F19.2°C 99% 9.8 mph S15.8 kmh S 18.3 mph29.5 kmh 29.96 in1014.6 mb 0.00 in0.0 mm 0.00 in0.0 mm 0.01 in0.3 mm
09:30 AM 66.6°F19.2°C 66.3°F19.1°C 99% 9.2 mph S14.8 kmh S 22.8 mph36.7 kmh 29.95 in1014.2 mb 0.00 in0.0 mm 0.00 in0.0 mm 0.01 in0.3 mm
09:45 AM 66.6°F19.2°C 66.3°F19.1°C 99% 7.6 mph SSW12.2 kmh SSW 18.3 mph29.5 kmh 29.97 in1014.9 mb 0.00 in0.0 mm 0.00 in0.0 mm 0.01 in0.3 mm
10:00 AM 67.3°F19.6°C 67.0°F19.4°C 99% 9.8 mph SSW15.8 kmh SSW 24.4 mph39.3 kmh 29.96 in1014.6 mb 0.00 in0.0 mm 0.00 in0.0 mm 0.01 in0.3 mm
10:15 AM 67.8°F19.9°C 67.6°F19.8°C 99% 9.2 mph SSW14.8 kmh SSW 21.3 mph34.3 kmh 29.96 in1014.6 mb 0.00 in0.0 mm 0.00 in0.0 mm 0.01 in0.3 mm
10:30 AM 68.2°F20.1°C 67.9°F19.9°C 99% 9.2 mph SW14.8 kmh SW 21.3 mph34.3 kmh 29.95 in1014.2 mb 0.00 in0.0 mm 0.00 in0.0 mm 0.01 in0.3 mm
10:45 AM 68.7°F20.4°C 68.2°F20.1°C 98% 9.2 mph SSW14.8 kmh SSW 19.7 mph31.7 kmh 29.95 in1014.2 mb 0.00 in0.0 mm 0.00 in0.0 mm 0.01 in0.3 mm
11:00 AM 69.4°F20.8°C 68.9°F20.5°C 98% 8.3 mph SSW13.4 kmh SSW 21.3 mph34.3 kmh 29.94 in1013.9 mb 0.00 in0.0 mm 0.00 in0.0 mm 0.01 in0.3 mm
11:15 AM 70.0°F21.1°C 68.8°F20.4°C 96% 8.3 mph SW13.4 kmh SW 21.3 mph34.3 kmh 29.95 in1014.2 mb 0.00 in0.0 mm 0.00 in0.0 mm 0.01 in0.3 mm
11:30 AM 70.7°F21.5°C 69.2°F20.7°C 95% 9.2 mph S14.8 kmh S 22.8 mph36.7 kmh 29.94 in1013.9 mb 0.00 in0.0 mm 0.00 in0.0 mm 0.01 in0.3 mm
11:45 AM 71.2°F21.8°C 69.1°F20.6°C 93% 9.2 mph SW14.8 kmh SW 25.1 mph40.4 kmh 29.94 in1013.9 mb 0.00 in0.0 mm 0.00 in0.0 mm 0.01 in0.3 mm
12:00 PM 71.6°F22.0°C 68.9°F20.5°C 91% 9.2 mph SSW14.8 kmh SSW 22.1 mph35.6 kmh 29.93 in1013.5 mb 0.00 in0.0 mm 0.00 in0.0 mm 0.01 in0.3 mm
12:15 PM 72.5°F22.5°C 69.8°F21.0°C 91% 8.3 mph SW13.4 kmh SW 18.3 mph29.5 kmh 29.93 in1013.5 mb 0.00 in0.0 mm 0.00 in0.0 mm 0.01 in0.3 mm
12:30 PM 72.9°F22.7°C 69.5°F20.8°C 89% 8.3 mph SSW13.4 kmh SSW 22.1 mph35.6 kmh 29.92 in1013.2 mb 0.00 in0.0 mm 0.00 in0.0 mm 0.01 in0.3 mm
12:45 PM 72.7°F22.6°C 69.0°F20.6°C 88% 6.9 mph SW11.1 kmh SW 28.2 mph45.4 kmh 29.90 in1012.5 mb 0.00 in0.0 mm 0.00 in0.0 mm 0.01 in0.3 mm
01:00 PM 72.7°F22.6°C 69.3°F20.7°C 89% 7.6 mph SW12.2 kmh SW 24.4 mph39.3 kmh 29.90 in1012.5 mb 0.00 in0.0 mm 0.00 in0.0 mm 0.01 in0.3 mm
01:15 PM 72.7°F22.6°C 69.0°F20.6°C 88% 8.3 mph SW13.4 kmh SW 25.9 mph41.7 kmh 29.89 in1012.2 mb 0.00 in0.0 mm 0.00 in0.0 mm 0.01 in0.3 mm
01:30 PM 72.7°F22.6°C 68.6°F20.3°C 87% 10.7 mph SW17.2 kmh SW 27.3 mph43.9 kmh 29.88 in1011.9 mb 0.00 in0.0 mm 0.00 in0.0 mm 0.01 in0.3 mm
01:45 PM 72.5°F22.5°C 68.1°F20.1°C 86% 15.9 mph SW25.6 kmh SW 25.9 mph41.7 kmh 29.88 in1011.9 mb 0.00 in0.0 mm 0.00 in0.0 mm 0.01 in0.3 mm
02:00 PM 72.1°F22.3°C 68.1°F20.1°C 87% 11.4 mph SW18.3 kmh SW 25.9 mph41.7 kmh 29.87 in1011.5 mb 0.00 in0.0 mm 0.00 in0.0 mm 0.01 in0.3 mm
02:15 PM 72.1°F22.3°C 68.1°F20.1°C 87% 8.3 mph SW13.4 kmh SW 23.5 mph37.8 kmh 29.88 in1011.9 mb 0.00 in0.0 mm 0.00 in0.0 mm 0.01 in0.3 mm
02:30 PM 72.0°F22.2°C 67.9°F19.9°C 87% 7.6 mph SW12.2 kmh SW 31.1 mph50.1 kmh 29.87 in1011.5 mb 0.00 in0.0 mm 0.00 in0.0 mm 0.01 in0.3 mm
02:45 PM 72.0°F22.2°C 68.2°F20.1°C 88% 11.4 mph SW18.3 kmh SW 20.6 mph33.2 kmh 29.86 in1011.2 mb 0.00 in0.0 mm 0.00 in0.0 mm 0.01 in0.3 mm
03:00 PM 71.8°F22.1°C 67.7°F19.8°C 87% 13.6 mph SW21.9 kmh SW 23.5 mph37.8 kmh 29.86 in1011.2 mb 0.00 in0.0 mm 0.00 in0.0 mm 0.01 in0.3 mm
03:15 PM 71.8°F22.1°C 67.7°F19.8°C 87% 10.7 mph SSW17.2 kmh SSW 23.5 mph37.8 kmh 29.86 in1011.2 mb 0.00 in0.0 mm 0.00 in0.0 mm 0.01 in0.3 mm
03:30 PM 72.1°F22.3°C 68.1°F20.1°C 87% 9.2 mph SW14.8 kmh SW 25.1 mph40.4 kmh 29.85 in1010.8 mb 0.00 in0.0 mm 0.00 in0.0 mm 0.01 in0.3 mm
03:45 PM 73.2°F22.9°C 68.5°F20.3°C 85% 5.4 mph SSW8.7 kmh SSW 22.1 mph35.6 kmh 29.85 in1010.8 mb 0.00 in0.0 mm 0.00 in0.0 mm 0.01 in0.3 mm
04:00 PM 72.9°F22.7°C 68.5°F20.3°C 86% 9.2 mph SW14.8 kmh SW 17.4 mph28.0 kmh 29.84 in1010.5 mb 0.00 in0.0 mm 0.00 in0.0 mm 0.01 in0.3 mm
04:15 PM 72.7°F22.6°C 68.3°F20.2°C 86% 9.2 mph WSW14.8 kmh WSW 16.8 mph27.0 kmh 29.84 in1010.5 mb 0.00 in0.0 mm 0.00 in0.0 mm 0.01 in0.3 mm
04:30 PM 72.5°F22.5°C 68.1°F20.1°C 86% 9.2 mph SW14.8 kmh SW 19.7 mph31.7 kmh 29.84 in1010.5 mb 0.00 in0.0 mm 0.00 in0.0 mm 0.01 in0.3 mm
04:45 PM 72.3°F22.4°C 67.9°F19.9°C 86% 4.5 mph SW7.2 kmh SW 14.5 mph23.3 kmh 29.84 in1010.5 mb 0.00 in0.0 mm 0.00 in0.0 mm 0.01 in0.3 mm
05:00 PM 72.1°F22.3°C 67.4°F19.7°C 85% 10.7 mph SW17.2 kmh SW 23.5 mph37.8 kmh 29.85 in1010.8 mb 0.00 in0.0 mm 0.00 in0.0 mm 0.01 in0.3 mm
05:15 PM 71.8°F22.1°C 67.4°F19.7°C 86% 9.8 mph SW15.8 kmh SW 21.3 mph34.3 kmh 29.86 in1011.2 mb 0.00 in0.0 mm 0.00 in0.0 mm 0.01 in0.3 mm
05:30 PM 71.2°F21.8°C 67.2°F19.6°C 87% 7.6 mph SW12.2 kmh SW 16.8 mph27.0 kmh 29.85 in1010.8 mb 0.00 in0.0 mm 0.00 in0.0 mm 0.01 in0.3 mm
05:45 PM 71.1°F21.7°C 67.0°F19.4°C 87% 8.3 mph SSW13.4 kmh SSW 15.9 mph25.6 kmh 29.85 in1010.8 mb 0.00 in0.0 mm 0.00 in0.0 mm 0.01 in0.3 mm
06:00 PM 70.9°F21.6°C 67.2°F19.6°C 88% 6.9 mph SSW11.1 kmh SSW 16.8 mph27.0 kmh 29.87 in1011.5 mb 0.00 in0.0 mm 0.00 in0.0 mm 0.01 in0.3 mm
06:15 PM 70.9°F21.6°C 67.2°F19.6°C 88% 6.0 mph SSW9.7 kmh SSW 16.8 mph27.0 kmh 29.87 in1011.5 mb 0.00 in0.0 mm 0.00 in0.0 mm 0.01 in0.3 mm
06:30 PM 70.7°F21.5°C 67.0°F19.4°C 88% 6.9 mph S11.1 kmh S 15.2 mph24.5 kmh 29.87 in1011.5 mb 0.00 in0.0 mm 0.00 in0.0 mm 0.01 in0.3 mm
06:45 PM 70.3°F21.3°C 67.0°F19.4°C 89% 5.4 mph SSW8.7 kmh SSW 15.2 mph24.5 kmh 29.88 in1011.9 mb 0.00 in0.0 mm 0.00 in0.0 mm 0.01 in0.3 mm
07:00 PM 70.2°F21.2°C 66.8°F19.3°C 89% 6.9 mph S11.1 kmh S 13.0 mph20.9 kmh 29.87 in1011.5 mb 0.00 in0.0 mm 0.00 in0.0 mm 0.01 in0.3 mm
07:15 PM 70.2°F21.2°C 66.8°F19.3°C 89% 3.8 mph SW6.1 kmh SW 19.7 mph31.7 kmh 29.87 in1011.5 mb 0.00 in0.0 mm 0.00 in0.0 mm 0.01 in0.3 mm
07:30 PM 70.2°F21.2°C 67.1°F19.5°C 90% 5.4 mph SSW8.7 kmh SSW 12.1 mph19.5 kmh 29.87 in1011.5 mb 0.00 in0.0 mm 0.00 in0.0 mm 0.01 in0.3 mm
07:45 PM 70.2°F21.2°C 67.1°F19.5°C 90% 6.0 mph SW9.7 kmh SW 17.4 mph28.0 kmh 29.86 in1011.2 mb 0.00 in0.0 mm 0.00 in0.0 mm 0.01 in0.3 mm
08:00 PM 70.0°F21.1°C 67.3°F19.6°C 91% 8.3 mph SSW13.4 kmh SSW 15.9 mph25.6 kmh 29.86 in1011.2 mb 0.00 in0.0 mm 0.00 in0.0 mm 0.01 in0.3 mm
08:15 PM 69.8°F21.0°C 67.1°F19.5°C 91% 5.4 mph SSW8.7 kmh SSW 15.9 mph25.6 kmh 29.86 in1011.2 mb 0.00 in0.0 mm 0.00 in0.0 mm 0.01 in0.3 mm
08:30 PM 69.8°F21.0°C 67.1°F19.5°C 91% 4.5 mph SSW7.2 kmh SSW 10.7 mph17.2 kmh 29.85 in1010.8 mb 0.00 in0.0 mm 0.00 in0.0 mm 0.01 in0.3 mm
08:45 PM 69.6°F20.9°C 67.2°F19.6°C 92% 5.4 mph SSW8.7 kmh SSW 11.4 mph18.3 kmh 29.86 in1011.2 mb 0.00 in0.0 mm 0.00 in0.0 mm 0.01 in0.3 mm
09:00 PM 69.6°F20.9°C 67.2°F19.6°C 92% 5.4 mph SSW8.7 kmh SSW 13.0 mph20.9 kmh 29.85 in1010.8 mb 0.00 in0.0 mm 0.00 in0.0 mm 0.01 in0.3 mm
09:15 PM 69.6°F20.9°C 67.2°F19.6°C 92% 2.2 mph SSW3.5 kmh SSW 13.0 mph20.9 kmh 29.85 in1010.8 mb 0.00 in0.0 mm 0.00 in0.0 mm 0.01 in0.3 mm
09:30 PM 69.4°F20.8°C 67.4°F19.7°C 93% 3.8 mph SSW6.1 kmh SSW 13.0 mph20.9 kmh 29.85 in1010.8 mb 0.00 in0.0 mm 0.00 in0.0 mm 0.01 in0.3 mm
09:45 PM 69.3°F20.7°C 67.2°F19.6°C 93% 4.5 mph SSW7.2 kmh SSW 14.5 mph23.3 kmh 29.84 in1010.5 mb 0.00 in0.0 mm 0.00 in0.0 mm 0.01 in0.3 mm
10:00 PM 69.1°F20.6°C 67.3°F19.6°C 94% 3.8 mph SW6.1 kmh SW 13.6 mph21.9 kmh 29.85 in1010.8 mb 0.00 in0.0 mm 0.00 in0.0 mm 0.01 in0.3 mm
10:15 PM 68.9°F20.5°C 67.1°F19.5°C 94% 4.5 mph SW7.2 kmh SW 13.6 mph21.9 kmh 29.85 in1010.8 mb 0.00 in0.0 mm 0.00 in0.0 mm 0.01 in0.3 mm
10:30 PM 68.7°F20.4°C 67.0°F19.4°C 94% 6.0 mph SSW9.7 kmh SSW 12.1 mph19.5 kmh 29.85 in1010.8 mb 0.00 in0.0 mm 0.00 in0.0 mm 0.01 in0.3 mm
10:45 PM 68.7°F20.4°C 67.0°F19.4°C 94% 5.4 mph SSW8.7 kmh SSW 13.0 mph20.9 kmh 29.86 in1011.2 mb 0.00 in0.0 mm 0.00 in0.0 mm 0.01 in0.3 mm
11:00 PM 68.5°F20.3°C 66.8°F19.3°C 94% 4.5 mph SW7.2 kmh SW 14.5 mph23.3 kmh 29.86 in1011.2 mb 0.00 in0.0 mm 0.00 in0.0 mm 0.01 in0.3 mm
11:15 PM 68.5°F20.3°C 66.8°F19.3°C 94% 3.1 mph SW5.0 kmh SW 9.8 mph15.8 kmh 29.85 in1010.8 mb 0.00 in0.0 mm 0.00 in0.0 mm 0.01 in0.3 mm
11:30 PM 68.4°F20.2°C 66.6°F19.2°C 94% 3.1 mph SW5.0 kmh SW 9.2 mph14.8 kmh 29.85 in1010.8 mb 0.00 in0.0 mm 0.00 in0.0 mm 0.01 in0.3 mm
11:45 PM 68.4°F20.2°C 66.6°F19.2°C 94% 3.1 mph SW5.0 kmh SW 8.3 mph13.4 kmh 29.85 in1010.8 mb 0.00 in0.0 mm 0.00 in0.0 mm 0.01 in0.3 mm